sensor_id;sensor_type;location;lat;lon;timestamp;P1;durP1;ratioP1;P2;durP2;ratioP2
82873;SDS011;72647;51.622;7.540;2023-09-30T00:01:17;13.03;;;4.30;;
82873;SDS011;72647;51.622;7.540;2023-09-30T00:03:18;11.95;;;3.95;;
82873;SDS011;72647;51.622;7.540;2023-09-30T00:05:18;17.80;;;4.73;;
82873;SDS011;72647;51.622;7.540;2023-09-30T00:07:19;11.35;;;4.38;;
82873;SDS011;72647;51.622;7.540;2023-09-30T00:09:20;16.20;;;5.63;;
82873;SDS011;72647;51.622;7.540;2023-09-30T00:11:20;16.30;;;4.87;;
82873;SDS011;72647;51.622;7.540;2023-09-30T00:13:20;16.97;;;4.50;;
82873;SDS011;72647;51.622;7.540;2023-09-30T00:15:21;15.30;;;4.85;;
82873;SDS011;72647;51.622;7.540;2023-09-30T00:17:22;18.35;;;4.78;;
82873;SDS011;72647;51.622;7.540;2023-09-30T00:19:22;13.07;;;4.03;;
82873;SDS011;72647;51.622;7.540;2023-09-30T00:21:22;13.02;;;4.30;;
82873;SDS011;72647;51.622;7.540;2023-09-30T00:23:23;13.95;;;4.10;;
82873;SDS011;72647;51.622;7.540;2023-09-30T00:25:24;12.32;;;4.47;;
82873;SDS011;72647;51.622;7.540;2023-09-30T00:27:25;13.57;;;4.82;;
82873;SDS011;72647;51.622;7.540;2023-09-30T00:29:25;17.63;;;5.30;;
82873;SDS011;72647;51.622;7.540;2023-09-30T00:31:26;17.10;;;5.22;;
82873;SDS011;72647;51.622;7.540;2023-09-30T00:33:26;19.23;;;6.13;;
82873;SDS011;72647;51.622;7.540;2023-09-30T00:35:27;18.45;;;5.25;;
82873;SDS011;72647;51.622;7.540;2023-09-30T00:37:27;25.20;;;6.03;;
82873;SDS011;72647;51.622;7.540;2023-09-30T00:39:28;22.13;;;5.37;;
82873;SDS011;72647;51.622;7.540;2023-09-30T00:41:31;20.17;;;5.07;;
82873;SDS011;72647;51.622;7.540;2023-09-30T00:43:31;15.40;;;4.77;;
82873;SDS011;72647;51.622;7.540;2023-09-30T00:45:32;19.27;;;4.88;;
82873;SDS011;72647;51.622;7.540;2023-09-30T00:47:33;16.98;;;5.15;;
82873;SDS011;72647;51.622;7.540;2023-09-30T00:49:33;19.08;;;4.68;;
82873;SDS011;72647;51.622;7.540;2023-09-30T00:51:34;24.02;;;6.18;;
82873;SDS011;72647;51.622;7.540;2023-09-30T00:53:34;16.07;;;5.07;;
82873;SDS011;72647;51.622;7.540;2023-09-30T00:55:34;20.60;;;4.93;;
82873;SDS011;72647;51.622;7.540;2023-09-30T00:57:34;18.73;;;5.23;;
82873;SDS011;72647;51.622;7.540;2023-09-30T00:59:35;16.58;;;4.47;;
82873;SDS011;72647;51.622;7.540;2023-09-30T01:01:36;12.37;;;4.50;;
82873;SDS011;72647;51.622;7.540;2023-09-30T01:05:37;11.43;;;3.45;;
82873;SDS011;72647;51.622;7.540;2023-09-30T01:07:38;13.68;;;4.53;;
82873;SDS011;72647;51.622;7.540;2023-09-30T01:09:38;17.27;;;4.33;;
82873;SDS011;72647;51.622;7.540;2023-09-30T01:11:39;12.90;;;4.72;;
82873;SDS011;72647;51.622;7.540;2023-09-30T01:13:40;16.73;;;5.55;;
82873;SDS011;72647;51.622;7.540;2023-09-30T01:15:43;15.85;;;5.07;;
82873;SDS011;72647;51.622;7.540;2023-09-30T01:17:43;13.27;;;5.10;;
82873;SDS011;72647;51.622;7.540;2023-09-30T01:19:43;14.17;;;5.23;;
82873;SDS011;72647;51.622;7.540;2023-09-30T01:21:43;14.27;;;4.80;;
82873;SDS011;72647;51.622;7.540;2023-09-30T01:23:48;16.48;;;4.57;;
82873;SDS011;72647;51.622;7.540;2023-09-30T01:25:48;13.57;;;4.20;;
82873;SDS011;72647;51.622;7.540;2023-09-30T01:29:52;10.65;;;3.67;;
82873;SDS011;72647;51.622;7.540;2023-09-30T01:31:52;16.25;;;4.95;;
82873;SDS011;72647;51.622;7.540;2023-09-30T01:33:53;11.30;;;4.40;;
82873;SDS011;72647;51.622;7.540;2023-09-30T01:35:54;12.57;;;4.88;;
82873;SDS011;72647;51.622;7.540;2023-09-30T01:37:54;14.83;;;5.10;;
82873;SDS011;72647;51.622;7.540;2023-09-30T01:39:55;11.50;;;4.60;;
82873;SDS011;72647;51.622;7.540;2023-09-30T01:41:55;12.30;;;4.37;;
82873;SDS011;72647;51.622;7.540;2023-09-30T01:43:55;15.30;;;4.77;;
82873;SDS011;72647;51.622;7.540;2023-09-30T01:45:56;17.95;;;4.85;;
82873;SDS011;72647;51.622;7.540;2023-09-30T01:47:58;16.67;;;4.90;;
82873;SDS011;72647;51.622;7.540;2023-09-30T01:49:58;15.43;;;4.50;;
82873;SDS011;72647;51.622;7.540;2023-09-30T01:51:59;22.15;;;5.57;;
82873;SDS011;72647;51.622;7.540;2023-09-30T01:53:59;16.87;;;5.57;;
82873;SDS011;72647;51.622;7.540;2023-09-30T01:56:00;21.55;;;5.75;;
82873;SDS011;72647;51.622;7.540;2023-09-30T02:00:01;15.67;;;4.47;;
82873;SDS011;72647;51.622;7.540;2023-09-30T02:02:01;16.75;;;5.43;;
82873;SDS011;72647;51.622;7.540;2023-09-30T02:04:01;20.30;;;6.28;;
82873;SDS011;72647;51.622;7.540;2023-09-30T02:06:02;22.23;;;6.47;;
82873;SDS011;72647;51.622;7.540;2023-09-30T02:08:04;21.75;;;6.45;;
82873;SDS011;72647;51.622;7.540;2023-09-30T02:10:05;14.82;;;5.28;;
82873;SDS011;72647;51.622;7.540;2023-09-30T02:12:07;17.17;;;5.40;;
82873;SDS011;72647;51.622;7.540;2023-09-30T02:14:09;15.68;;;5.00;;
82873;SDS011;72647;51.622;7.540;2023-09-30T02:16:11;10.40;;;5.28;;
82873;SDS011;72647;51.622;7.540;2023-09-30T02:18:12;14.15;;;4.72;;
82873;SDS011;72647;51.622;7.540;2023-09-30T02:20:12;14.83;;;5.40;;
82873;SDS011;72647;51.622;7.540;2023-09-30T02:22:15;14.77;;;4.70;;
82873;SDS011;72647;51.622;7.540;2023-09-30T02:24:16;13.70;;;4.68;;
82873;SDS011;72647;51.622;7.540;2023-09-30T02:26:16;15.07;;;4.87;;
82873;SDS011;72647;51.622;7.540;2023-09-30T02:28:17;16.33;;;4.65;;
82873;SDS011;72647;51.622;7.540;2023-09-30T02:30:18;18.80;;;5.20;;
82873;SDS011;72647;51.622;7.540;2023-09-30T02:32:18;12.68;;;4.70;;
82873;SDS011;72647;51.622;7.540;2023-09-30T02:34:19;18.17;;;5.33;;
82873;SDS011;72647;51.622;7.540;2023-09-30T02:38:19;17.63;;;4.55;;
82873;SDS011;72647;51.622;7.540;2023-09-30T02:40:21;16.85;;;5.32;;
82873;SDS011;72647;51.622;7.540;2023-09-30T02:42:24;19.90;;;5.88;;
82873;SDS011;72647;51.622;7.540;2023-09-30T02:44:24;18.03;;;5.73;;
82873;SDS011;72647;51.622;7.540;2023-09-30T02:46:25;15.50;;;4.73;;
82873;SDS011;72647;51.622;7.540;2023-09-30T02:48:28;12.70;;;4.88;;
82873;SDS011;72647;51.622;7.540;2023-09-30T02:50:28;14.63;;;4.77;;
82873;SDS011;72647;51.622;7.540;2023-09-30T02:52:28;14.00;;;4.70;;
82873;SDS011;72647;51.622;7.540;2023-09-30T02:54:32;12.45;;;4.72;;
82873;SDS011;72647;51.622;7.540;2023-09-30T02:56:32;11.75;;;5.28;;
82873;SDS011;72647;51.622;7.540;2023-09-30T02:58:32;13.67;;;4.77;;
82873;SDS011;72647;51.622;7.540;2023-09-30T03:00:33;12.73;;;4.47;;
82873;SDS011;72647;51.622;7.540;2023-09-30T03:02:34;20.55;;;5.60;;
82873;SDS011;72647;51.622;7.540;2023-09-30T03:04:35;26.45;;;6.10;;
82873;SDS011;72647;51.622;7.540;2023-09-30T03:06:36;35.22;;;7.18;;
82873;SDS011;72647;51.622;7.540;2023-09-30T03:08:37;18.65;;;6.35;;
82873;SDS011;72647;51.622;7.540;2023-09-30T03:10:37;24.10;;;5.67;;
82873;SDS011;72647;51.622;7.540;2023-09-30T03:12:40;25.60;;;6.13;;
82873;SDS011;72647;51.622;7.540;2023-09-30T03:14:41;22.50;;;7.17;;
82873;SDS011;72647;51.622;7.540;2023-09-30T03:16:41;20.23;;;5.60;;
82873;SDS011;72647;51.622;7.540;2023-09-30T03:18:43;16.05;;;5.50;;
82873;SDS011;72647;51.622;7.540;2023-09-30T03:20:44;25.88;;;5.88;;
82873;SDS011;72647;51.622;7.540;2023-09-30T03:22:44;23.67;;;6.50;;
82873;SDS011;72647;51.622;7.540;2023-09-30T03:24:46;16.35;;;5.18;;
82873;SDS011;72647;51.622;7.540;2023-09-30T03:26:48;17.15;;;5.05;;
82873;SDS011;72647;51.622;7.540;2023-09-30T03:30:49;18.73;;;5.25;;
82873;SDS011;72647;51.622;7.540;2023-09-30T03:32:50;16.67;;;5.97;;
82873;SDS011;72647;51.622;7.540;2023-09-30T03:34:50;22.43;;;4.90;;
82873;SDS011;72647;51.622;7.540;2023-09-30T03:36:52;15.30;;;4.60;;
82873;SDS011;72647;51.622;7.540;2023-09-30T03:38:55;20.90;;;5.97;;
82873;SDS011;72647;51.622;7.540;2023-09-30T03:40:55;17.00;;;5.78;;
82873;SDS011;72647;51.622;7.540;2023-09-30T03:42:57;20.80;;;5.22;;
82873;SDS011;72647;51.622;7.540;2023-09-30T03:44:57;19.07;;;6.13;;
82873;SDS011;72647;51.622;7.540;2023-09-30T03:46:57;17.13;;;5.53;;
82873;SDS011;72647;51.622;7.540;2023-09-30T03:48:59;16.27;;;5.32;;
82873;SDS011;72647;51.622;7.540;2023-09-30T03:51:07;16.85;;;5.07;;
82873;SDS011;72647;51.622;7.540;2023-09-30T03:53:07;19.73;;;5.72;;
82873;SDS011;72647;51.622;7.540;2023-09-30T03:55:08;22.37;;;6.50;;
82873;SDS011;72647;51.622;7.540;2023-09-30T03:57:09;23.17;;;7.05;;
82873;SDS011;72647;51.622;7.540;2023-09-30T03:59:12;19.45;;;6.07;;
82873;SDS011;72647;51.622;7.540;2023-09-30T04:01:13;18.95;;;5.57;;
82873;SDS011;72647;51.622;7.540;2023-09-30T04:03:14;26.40;;;6.60;;
82873;SDS011;72647;51.622;7.540;2023-09-30T04:05:14;25.33;;;6.43;;
82873;SDS011;72647;51.622;7.540;2023-09-30T04:07:16;28.17;;;6.85;;
82873;SDS011;72647;51.622;7.540;2023-09-30T04:09:17;16.13;;;4.97;;
82873;SDS011;72647;51.622;7.540;2023-09-30T04:11:17;18.98;;;5.25;;
82873;SDS011;72647;51.622;7.540;2023-09-30T04:13:19;17.40;;;5.25;;
82873;SDS011;72647;51.622;7.540;2023-09-30T04:15:21;21.77;;;5.88;;
82873;SDS011;72647;51.622;7.540;2023-09-30T04:17:21;19.77;;;6.28;;
82873;SDS011;72647;51.622;7.540;2023-09-30T04:19:23;22.05;;;6.55;;
82873;SDS011;72647;51.622;7.540;2023-09-30T04:21:23;24.93;;;6.73;;
82873;SDS011;72647;51.622;7.540;2023-09-30T04:23:23;23.80;;;6.00;;
82873;SDS011;72647;51.622;7.540;2023-09-30T04:25:23;20.50;;;5.37;;
82873;SDS011;72647;51.622;7.540;2023-09-30T04:27:24;18.70;;;5.43;;
82873;SDS011;72647;51.622;7.540;2023-09-30T04:29:25;20.80;;;5.97;;
82873;SDS011;72647;51.622;7.540;2023-09-30T04:31:25;22.30;;;5.93;;
82873;SDS011;72647;51.622;7.540;2023-09-30T04:33:25;22.27;;;5.23;;
82873;SDS011;72647;51.622;7.540;2023-09-30T04:37:27;24.20;;;5.70;;
82873;SDS011;72647;51.622;7.540;2023-09-30T04:39:29;23.65;;;6.35;;
82873;SDS011;72647;51.622;7.540;2023-09-30T04:43:30;24.90;;;5.60;;
82873;SDS011;72647;51.622;7.540;2023-09-30T04:45:32;20.70;;;5.18;;
82873;SDS011;72647;51.622;7.540;2023-09-30T04:47:33;18.90;;;5.45;;
82873;SDS011;72647;51.622;7.540;2023-09-30T04:49:34;24.67;;;6.15;;
82873;SDS011;72647;51.622;7.540;2023-09-30T04:51:35;26.98;;;6.20;;
82873;SDS011;72647;51.622;7.540;2023-09-30T04:53:35;25.43;;;6.33;;
82873;SDS011;72647;51.622;7.540;2023-09-30T04:55:36;25.10;;;6.73;;
82873;SDS011;72647;51.622;7.540;2023-09-30T04:57:37;23.08;;;7.20;;
82873;SDS011;72647;51.622;7.540;2023-09-30T04:59:38;22.02;;;6.60;;
82873;SDS011;72647;51.622;7.540;2023-09-30T05:01:40;26.05;;;6.55;;
82873;SDS011;72647;51.622;7.540;2023-09-30T05:05:40;22.47;;;6.13;;
82873;SDS011;72647;51.622;7.540;2023-09-30T05:09:43;21.90;;;5.93;;
82873;SDS011;72647;51.622;7.540;2023-09-30T05:11:45;30.88;;;6.85;;
82873;SDS011;72647;51.622;7.540;2023-09-30T05:13:46;24.17;;;6.10;;
82873;SDS011;72647;51.622;7.540;2023-09-30T05:17:46;23.60;;;5.87;;
82873;SDS011;72647;51.622;7.540;2023-09-30T05:19:47;23.45;;;5.97;;
82873;SDS011;72647;51.622;7.540;2023-09-30T05:21:48;18.48;;;5.32;;
82873;SDS011;72647;51.622;7.540;2023-09-30T05:23:49;24.95;;;6.90;;
82873;SDS011;72647;51.622;7.540;2023-09-30T05:25:49;22.08;;;6.07;;
82873;SDS011;72647;51.622;7.540;2023-09-30T05:27:49;30.93;;;6.50;;
82873;SDS011;72647;51.622;7.540;2023-09-30T05:29:49;21.63;;;5.90;;
82873;SDS011;72647;51.622;7.540;2023-09-30T05:31:50;19.80;;;5.78;;
82873;SDS011;72647;51.622;7.540;2023-09-30T05:33:50;26.23;;;6.30;;
82873;SDS011;72647;51.622;7.540;2023-09-30T05:35:50;17.73;;;5.03;;
82873;SDS011;72647;51.622;7.540;2023-09-30T05:37:51;23.80;;;5.38;;
82873;SDS011;72647;51.622;7.540;2023-09-30T05:39:54;19.45;;;5.22;;
82873;SDS011;72647;51.622;7.540;2023-09-30T05:41:54;16.93;;;5.77;;
82873;SDS011;72647;51.622;7.540;2023-09-30T05:43:55;23.05;;;6.32;;
82873;SDS011;72647;51.622;7.540;2023-09-30T05:45:55;23.80;;;7.27;;
82873;SDS011;72647;51.622;7.540;2023-09-30T05:47:55;25.53;;;6.40;;
82873;SDS011;72647;51.622;7.540;2023-09-30T05:49:57;24.20;;;6.38;;
82873;SDS011;72647;51.622;7.540;2023-09-30T05:51:57;28.97;;;6.73;;
82873;SDS011;72647;51.622;7.540;2023-09-30T05:53:57;25.20;;;6.97;;
82873;SDS011;72647;51.622;7.540;2023-09-30T05:55:58;23.27;;;6.30;;
82873;SDS011;72647;51.622;7.540;2023-09-30T05:57:59;24.42;;;5.65;;
82873;SDS011;72647;51.622;7.540;2023-09-30T06:02:01;21.33;;;5.28;;
82873;SDS011;72647;51.622;7.540;2023-09-30T06:04:03;16.05;;;4.72;;
82873;SDS011;72647;51.622;7.540;2023-09-30T06:06:03;18.27;;;4.88;;
82873;SDS011;72647;51.622;7.540;2023-09-30T06:08:11;15.88;;;5.47;;
82873;SDS011;72647;51.622;7.540;2023-09-30T06:10:13;21.52;;;5.70;;
82873;SDS011;72647;51.622;7.540;2023-09-30T06:12:18;29.67;;;6.57;;
82873;SDS011;72647;51.622;7.540;2023-09-30T06:14:21;20.48;;;6.10;;
82873;SDS011;72647;51.622;7.540;2023-09-30T06:16:21;17.17;;;5.45;;
82873;SDS011;72647;51.622;7.540;2023-09-30T06:18:31;24.02;;;5.13;;
82873;SDS011;72647;51.622;7.540;2023-09-30T06:20:39;20.77;;;5.10;;
82873;SDS011;72647;51.622;7.540;2023-09-30T06:22:39;15.13;;;4.80;;
82873;SDS011;72647;51.622;7.540;2023-09-30T06:24:39;16.87;;;4.53;;
82873;SDS011;72647;51.622;7.540;2023-09-30T06:26:53;14.70;;;4.03;;
82873;SDS011;72647;51.622;7.540;2023-09-30T06:29:07;13.88;;;4.00;;
82873;SDS011;72647;51.622;7.540;2023-09-30T06:33:37;16.17;;;4.05;;
82873;SDS011;72647;51.622;7.540;2023-09-30T06:41:06;12.80;;;4.28;;
82873;SDS011;72647;51.622;7.540;2023-09-30T06:43:06;15.10;;;4.78;;
82873;SDS011;72647;51.622;7.540;2023-09-30T06:47:13;14.68;;;4.13;;
82873;SDS011;72647;51.622;7.540;2023-09-30T06:49:13;14.68;;;4.03;;
82873;SDS011;72647;51.622;7.540;2023-09-30T06:51:22;17.70;;;4.35;;
82873;SDS011;72647;51.622;7.540;2023-09-30T06:58:24;14.07;;;4.43;;
82873;SDS011;72647;51.622;7.540;2023-09-30T07:08:02;13.10;;;4.95;;
82873;SDS011;72647;51.622;7.540;2023-09-30T07:10:17;14.10;;;4.85;;
82873;SDS011;72647;51.622;7.540;2023-09-30T07:12:33;15.90;;;4.57;;
82873;SDS011;72647;51.622;7.540;2023-09-30T07:14:50;18.83;;;5.20;;
82873;SDS011;72647;51.622;7.540;2023-09-30T07:16:59;13.68;;;4.75;;
82873;SDS011;72647;51.622;7.540;2023-09-30T07:19:00;16.27;;;5.10;;
82873;SDS011;72647;51.622;7.540;2023-09-30T07:21:02;18.52;;;5.65;;
82873;SDS011;72647;51.622;7.540;2023-09-30T07:23:04;14.00;;;4.90;;
82873;SDS011;72647;51.622;7.540;2023-09-30T07:25:06;14.15;;;5.38;;
82873;SDS011;72647;51.622;7.540;2023-09-30T07:27:08;12.32;;;4.03;;
82873;SDS011;72647;51.622;7.540;2023-09-30T07:34:18;16.83;;;4.38;;
82873;SDS011;72647;51.622;7.540;2023-09-30T07:39:05;16.20;;;4.60;;
82873;SDS011;72647;51.622;7.540;2023-09-30T07:43:43;15.00;;;4.95;;
82873;SDS011;72647;51.622;7.540;2023-09-30T07:48:22;8.80;;;3.78;;
82873;SDS011;72647;51.622;7.540;2023-09-30T07:50:22;11.52;;;3.53;;
82873;SDS011;72647;51.622;7.540;2023-09-30T07:52:22;14.13;;;3.73;;
82873;SDS011;72647;51.622;7.540;2023-09-30T07:58:39;8.40;;;3.22;;
82873;SDS011;72647;51.622;7.540;2023-09-30T08:03:17;10.52;;;3.00;;
82873;SDS011;72647;51.622;7.540;2023-09-30T08:09:23;12.55;;;3.65;;
82873;SDS011;72647;51.622;7.540;2023-09-30T08:11:24;11.68;;;3.22;;
82873;SDS011;72647;51.622;7.540;2023-09-30T08:13:27;7.63;;;2.90;;
82873;SDS011;72647;51.622;7.540;2023-09-30T08:15:29;10.45;;;3.33;;
82873;SDS011;72647;51.622;7.540;2023-09-30T08:19:30;8.50;;;3.05;;
82873;SDS011;72647;51.622;7.540;2023-09-30T08:21:30;13.67;;;3.27;;
82873;SDS011;72647;51.622;7.540;2023-09-30T08:25:30;8.32;;;2.92;;
82873;SDS011;72647;51.622;7.540;2023-09-30T08:29:35;9.60;;;3.15;;
82873;SDS011;72647;51.622;7.540;2023-09-30T08:31:36;9.38;;;3.47;;
82873;SDS011;72647;51.622;7.540;2023-09-30T08:33:36;9.23;;;2.80;;
82873;SDS011;72647;51.622;7.540;2023-09-30T08:35:36;10.80;;;3.60;;
82873;SDS011;72647;51.622;7.540;2023-09-30T08:37:37;10.57;;;4.05;;
82873;SDS011;72647;51.622;7.540;2023-09-30T08:39:38;10.33;;;3.80;;
82873;SDS011;72647;51.622;7.540;2023-09-30T08:41:40;10.38;;;3.70;;
82873;SDS011;72647;51.622;7.540;2023-09-30T08:43:40;12.23;;;4.17;;
82873;SDS011;72647;51.622;7.540;2023-09-30T08:45:40;8.48;;;3.20;;
82873;SDS011;72647;51.622;7.540;2023-09-30T08:47:44;10.02;;;3.35;;
82873;SDS011;72647;51.622;7.540;2023-09-30T08:49:46;10.45;;;3.75;;
82873;SDS011;72647;51.622;7.540;2023-09-30T08:51:48;11.10;;;3.78;;
82873;SDS011;72647;51.622;7.540;2023-09-30T08:53:50;10.18;;;3.40;;
82873;SDS011;72647;51.622;7.540;2023-09-30T08:55:54;10.10;;;3.67;;
82873;SDS011;72647;51.622;7.540;2023-09-30T08:57:55;7.13;;;2.50;;
82873;SDS011;72647;51.622;7.540;2023-09-30T08:59:58;10.45;;;2.85;;
82873;SDS011;72647;51.622;7.540;2023-09-30T09:02:00;9.13;;;2.72;;
82873;SDS011;72647;51.622;7.540;2023-09-30T09:04:00;10.23;;;3.53;;
82873;SDS011;72647;51.622;7.540;2023-09-30T09:06:00;8.77;;;2.97;;
82873;SDS011;72647;51.622;7.540;2023-09-30T09:08:01;7.80;;;2.30;;
82873;SDS011;72647;51.622;7.540;2023-09-30T09:12:06;6.53;;;2.75;;
82873;SDS011;72647;51.622;7.540;2023-09-30T09:14:06;11.02;;;3.28;;
82873;SDS011;72647;51.622;7.540;2023-09-30T09:16:08;7.03;;;2.47;;
82873;SDS011;72647;51.622;7.540;2023-09-30T09:18:09;6.47;;;2.58;;
82873;SDS011;72647;51.622;7.540;2023-09-30T09:20:10;7.50;;;2.50;;
82873;SDS011;72647;51.622;7.540;2023-09-30T09:22:11;7.60;;;2.80;;
82873;SDS011;72647;51.622;7.540;2023-09-30T09:24:11;8.07;;;2.47;;
82873;SDS011;72647;51.622;7.540;2023-09-30T09:26:31;7.75;;;2.55;;
82873;SDS011;72647;51.622;7.540;2023-09-30T09:28:38;8.27;;;2.60;;
82873;SDS011;72647;51.622;7.540;2023-09-30T09:30:39;7.93;;;2.58;;
82873;SDS011;72647;51.622;7.540;2023-09-30T09:33:00;6.28;;;2.20;;
82873;SDS011;72647;51.622;7.540;2023-09-30T09:35:00;6.28;;;2.40;;
82873;SDS011;72647;51.622;7.540;2023-09-30T09:37:12;5.82;;;2.15;;
82873;SDS011;72647;51.622;7.540;2023-09-30T09:39:12;6.80;;;2.42;;
82873;SDS011;72647;51.622;7.540;2023-09-30T09:41:14;6.15;;;2.00;;
82873;SDS011;72647;51.622;7.540;2023-09-30T09:43:15;7.60;;;2.33;;
82873;SDS011;72647;51.622;7.540;2023-09-30T09:45:16;5.57;;;2.28;;
82873;SDS011;72647;51.622;7.540;2023-09-30T09:47:17;6.80;;;2.38;;
82873;SDS011;72647;51.622;7.540;2023-09-30T09:49:18;5.70;;;2.40;;
82873;SDS011;72647;51.622;7.540;2023-09-30T09:51:18;4.80;;;2.22;;
82873;SDS011;72647;51.622;7.540;2023-09-30T09:53:20;5.32;;;1.90;;
82873;SDS011;72647;51.622;7.540;2023-09-30T09:55:22;6.07;;;2.33;;
82873;SDS011;72647;51.622;7.540;2023-09-30T09:57:22;5.10;;;1.63;;
82873;SDS011;72647;51.622;7.540;2023-09-30T09:59:25;7.20;;;2.47;;
82873;SDS011;72647;51.622;7.540;2023-09-30T10:01:26;7.35;;;1.98;;
82873;SDS011;72647;51.622;7.540;2023-09-30T10:03:27;5.80;;;2.30;;
82873;SDS011;72647;51.622;7.540;2023-09-30T10:05:28;5.00;;;2.10;;
82873;SDS011;72647;51.622;7.540;2023-09-30T10:07:29;5.35;;;2.15;;
82873;SDS011;72647;51.622;7.540;2023-09-30T10:09:32;4.13;;;1.73;;
82873;SDS011;72647;51.622;7.540;2023-09-30T10:11:34;6.18;;;2.00;;
82873;SDS011;72647;51.622;7.540;2023-09-30T10:13:53;5.13;;;2.17;;
82873;SDS011;72647;51.622;7.540;2023-09-30T10:15:55;6.00;;;2.03;;
82873;SDS011;72647;51.622;7.540;2023-09-30T10:17:59;6.97;;;2.00;;
82873;SDS011;72647;51.622;7.540;2023-09-30T10:20:06;5.53;;;2.00;;
82873;SDS011;72647;51.622;7.540;2023-09-30T10:26:24;4.72;;;2.20;;
82873;SDS011;72647;51.622;7.540;2023-09-30T10:28:34;5.03;;;2.13;;
82873;SDS011;72647;51.622;7.540;2023-09-30T10:30:34;5.38;;;1.90;;
82873;SDS011;72647;51.622;7.540;2023-09-30T10:34:50;8.60;;;1.67;;
82873;SDS011;72647;51.622;7.540;2023-09-30T10:36:52;5.82;;;1.75;;
82873;SDS011;72647;51.622;7.540;2023-09-30T10:38:52;6.90;;;2.22;;
82873;SDS011;72647;51.622;7.540;2023-09-30T10:40:53;6.23;;;2.03;;
82873;SDS011;72647;51.622;7.540;2023-09-30T10:42:53;6.40;;;2.00;;
82873;SDS011;72647;51.622;7.540;2023-09-30T10:44:55;6.97;;;2.28;;
82873;SDS011;72647;51.622;7.540;2023-09-30T10:46:59;5.13;;;2.53;;
82873;SDS011;72647;51.622;7.540;2023-09-30T10:49:45;4.70;;;1.80;;
82873;SDS011;72647;51.622;7.540;2023-09-30T10:51:26;4.85;;;1.75;;
82873;SDS011;72647;51.622;7.540;2023-09-30T10:53:27;4.60;;;1.83;;
82873;SDS011;72647;51.622;7.540;2023-09-30T10:55:27;7.43;;;1.80;;
82873;SDS011;72647;51.622;7.540;2023-09-30T10:57:27;5.32;;;1.90;;
82873;SDS011;72647;51.622;7.540;2023-09-30T10:59:28;4.65;;;2.05;;
82873;SDS011;72647;51.622;7.540;2023-09-30T11:01:33;5.55;;;1.88;;
82873;SDS011;72647;51.622;7.540;2023-09-30T11:03:34;4.38;;;2.10;;
82873;SDS011;72647;51.622;7.540;2023-09-30T11:05:34;4.30;;;1.83;;
82873;SDS011;72647;51.622;7.540;2023-09-30T11:07:34;5.43;;;2.42;;
82873;SDS011;72647;51.622;7.540;2023-09-30T11:09:35;5.65;;;2.22;;
82873;SDS011;72647;51.622;7.540;2023-09-30T11:11:37;3.38;;;1.80;;
82873;SDS011;72647;51.622;7.540;2023-09-30T11:13:38;3.88;;;1.88;;
82873;SDS011;72647;51.622;7.540;2023-09-30T11:15:39;6.85;;;2.05;;
82873;SDS011;72647;51.622;7.540;2023-09-30T11:17:39;4.97;;;2.60;;
82873;SDS011;72647;51.622;7.540;2023-09-30T11:19:46;5.63;;;1.98;;
82873;SDS011;72647;51.622;7.540;2023-09-30T11:21:51;5.85;;;2.20;;
82873;SDS011;72647;51.622;7.540;2023-09-30T11:23:51;4.72;;;2.17;;
82873;SDS011;72647;51.622;7.540;2023-09-30T11:25:53;6.47;;;2.47;;
82873;SDS011;72647;51.622;7.540;2023-09-30T11:27:54;5.50;;;2.15;;
82873;SDS011;72647;51.622;7.540;2023-09-30T11:30:12;3.78;;;1.75;;
82873;SDS011;72647;51.622;7.540;2023-09-30T11:32:22;6.43;;;2.55;;
82873;SDS011;72647;51.622;7.540;2023-09-30T11:34:33;5.93;;;2.25;;
82873;SDS011;72647;51.622;7.540;2023-09-30T11:36:37;5.03;;;2.00;;
82873;SDS011;72647;51.622;7.540;2023-09-30T11:38:37;5.32;;;2.60;;
82873;SDS011;72647;51.622;7.540;2023-09-30T11:41:06;5.68;;;2.15;;
82873;SDS011;72647;51.622;7.540;2023-09-30T11:43:06;4.03;;;2.08;;
82873;SDS011;72647;51.622;7.540;2023-09-30T11:45:20;5.65;;;2.40;;
82873;SDS011;72647;51.622;7.540;2023-09-30T11:47:30;5.43;;;2.28;;
82873;SDS011;72647;51.622;7.540;2023-09-30T11:51:44;5.50;;;1.92;;
82873;SDS011;72647;51.622;7.540;2023-09-30T11:53:46;5.70;;;2.40;;
82873;SDS011;72647;51.622;7.540;2023-09-30T11:55:47;4.57;;;2.30;;
82873;SDS011;72647;51.622;7.540;2023-09-30T11:57:47;5.75;;;2.22;;
82873;SDS011;72647;51.622;7.540;2023-09-30T11:59:47;5.57;;;2.70;;
82873;SDS011;72647;51.622;7.540;2023-09-30T12:01:48;6.90;;;2.40;;
82873;SDS011;72647;51.622;7.540;2023-09-30T12:03:51;4.60;;;1.98;;
82873;SDS011;72647;51.622;7.540;2023-09-30T12:05:51;6.78;;;2.63;;
82873;SDS011;72647;51.622;7.540;2023-09-30T12:07:54;4.47;;;1.88;;
82873;SDS011;72647;51.622;7.540;2023-09-30T12:09:54;4.80;;;2.10;;
82873;SDS011;72647;51.622;7.540;2023-09-30T12:11:55;5.15;;;2.20;;
82873;SDS011;72647;51.622;7.540;2023-09-30T12:13:57;5.95;;;2.00;;
82873;SDS011;72647;51.622;7.540;2023-09-30T12:15:57;6.07;;;1.73;;
82873;SDS011;72647;51.622;7.540;2023-09-30T12:17:57;6.13;;;2.27;;
82873;SDS011;72647;51.622;7.540;2023-09-30T12:19:58;4.68;;;1.90;;
82873;SDS011;72647;51.622;7.540;2023-09-30T12:22:00;6.68;;;2.20;;
82873;SDS011;72647;51.622;7.540;2023-09-30T12:24:01;5.30;;;2.47;;
82873;SDS011;72647;51.622;7.540;2023-09-30T12:26:03;3.65;;;2.05;;
82873;SDS011;72647;51.622;7.540;2023-09-30T12:28:05;4.72;;;2.25;;
82873;SDS011;72647;51.622;7.540;2023-09-30T12:30:06;5.53;;;2.30;;
82873;SDS011;72647;51.622;7.540;2023-09-30T12:32:06;5.22;;;2.22;;
82873;SDS011;72647;51.622;7.540;2023-09-30T12:34:07;6.33;;;2.43;;
82873;SDS011;72647;51.622;7.540;2023-09-30T12:36:08;4.10;;;2.33;;
82873;SDS011;72647;51.622;7.540;2023-09-30T12:38:08;4.90;;;2.05;;
82873;SDS011;72647;51.622;7.540;2023-09-30T12:40:09;5.82;;;2.70;;
82873;SDS011;72647;51.622;7.540;2023-09-30T12:42:11;5.95;;;3.28;;
82873;SDS011;72647;51.622;7.540;2023-09-30T12:44:12;7.50;;;3.33;;
82873;SDS011;72647;51.622;7.540;2023-09-30T12:46:13;4.35;;;2.28;;
82873;SDS011;72647;51.622;7.540;2023-09-30T12:48:13;6.90;;;3.03;;
82873;SDS011;72647;51.622;7.540;2023-09-30T12:50:14;4.25;;;2.00;;
82873;SDS011;72647;51.622;7.540;2023-09-30T12:52:14;6.37;;;2.33;;
82873;SDS011;72647;51.622;7.540;2023-09-30T12:54:14;4.67;;;2.00;;
82873;SDS011;72647;51.622;7.540;2023-09-30T12:56:18;6.10;;;2.47;;
82873;SDS011;72647;51.622;7.540;2023-09-30T12:58:19;5.68;;;2.40;;
82873;SDS011;72647;51.622;7.540;2023-09-30T13:00:19;5.43;;;2.63;;
82873;SDS011;72647;51.622;7.540;2023-09-30T13:02:21;6.63;;;2.40;;
82873;SDS011;72647;51.622;7.540;2023-09-30T13:04:21;3.70;;;1.75;;
82873;SDS011;72647;51.622;7.540;2023-09-30T13:06:23;4.85;;;2.10;;
82873;SDS011;72647;51.622;7.540;2023-09-30T13:08:23;6.43;;;2.10;;
82873;SDS011;72647;51.622;7.540;2023-09-30T13:10:24;3.67;;;2.13;;
82873;SDS011;72647;51.622;7.540;2023-09-30T13:12:24;4.32;;;2.42;;
82873;SDS011;72647;51.622;7.540;2023-09-30T13:14:25;4.93;;;2.00;;
82873;SDS011;72647;51.622;7.540;2023-09-30T13:16:28;6.80;;;2.65;;
82873;SDS011;72647;51.622;7.540;2023-09-30T13:18:28;5.93;;;2.90;;
82873;SDS011;72647;51.622;7.540;2023-09-30T13:20:28;7.37;;;2.17;;
82873;SDS011;72647;51.622;7.540;2023-09-30T13:22:28;4.60;;;2.15;;
82873;SDS011;72647;51.622;7.540;2023-09-30T13:24:28;5.93;;;2.10;;
82873;SDS011;72647;51.622;7.540;2023-09-30T13:26:29;5.13;;;2.70;;
82873;SDS011;72647;51.622;7.540;2023-09-30T13:28:30;5.68;;;2.50;;
82873;SDS011;72647;51.622;7.540;2023-09-30T13:30:32;5.00;;;2.50;;
82873;SDS011;72647;51.622;7.540;2023-09-30T13:32:33;5.32;;;2.42;;
82873;SDS011;72647;51.622;7.540;2023-09-30T13:34:35;8.18;;;2.35;;